Time;durP1;ratioP1;P1;durP2;ratioP2;P2;SDS_P1;SDS_P2;PMS_P1;PMS_P2;Temp;Humidity;BMP_temperature;BMP_pressure;BME280_temperature;BME280_humidity;BME280_pressure;Samples;Min_cycle;Max_cycle;Signal;HPM_P1;HPM_P2
2024/01/23 00:00:25;;;;;;;35.35;4.50;;;9.10;99.90;;;;;;5031128;28;20389;-87
2024/01/23 00:02:51;;;;;;;40.92;5.20;;;9.00;99.90;;;;;;5027114;28;20060;-88
2024/01/23 00:05:29;;;;;;;26.98;4.45;;;8.30;99.90;;;;;;5032720;28;20044;-88
2024/01/23 00:07:55;;;;;;;26.23;3.97;;;7.50;99.90;;;;;;5027479;28;20025;-88
2024/01/23 00:10:22;;;;;;;34.53;4.88;;;9.00;99.90;;;;;;5032896;28;20492;-87
2024/01/23 00:12:48;;;;;;;26.90;5.03;;;8.20;99.90;;;;;;5036116;28;20053;-88
2024/01/23 00:15:14;;;;;;;35.38;5.00;;;9.40;99.90;;;;;;5042398;28;20033;-88
2024/01/23 00:17:40;;;;;;;35.88;5.20;;;8.20;99.90;;;;;;5040121;28;20097;-87
2024/01/23 00:20:06;;;;;;;25.75;4.03;;;8.20;99.90;;;;;;5039409;28;20031;-87
2024/01/23 00:22:31;;;;;;;26.92;4.13;;;8.20;99.90;;;;;;5034760;28;20033;-87
2024/01/23 00:24:57;;;;;;;31.90;4.38;;;8.20;99.90;;;;;;5041207;28;20037;-88
2024/01/23 00:27:23;;;;;;;35.05;4.40;;;8.20;99.90;;;;;;5032596;28;20029;-87
2024/01/23 00:29:48;;;;;;;28.13;5.57;;;8.50;99.90;;;;;;5031200;28;20029;-88
2024/01/23 00:32:14;;;;;;;25.75;5.10;;;8.30;99.90;;;;;;5030717;28;20029;-87
2024/01/23 00:34:40;;;;;;;26.98;4.75;;;8.20;99.90;;;;;;5032145;28;20223;-87
2024/01/23 00:37:06;;;;;;;23.70;4.25;;;8.30;99.90;;;;;;5038900;28;20021;-87
2024/01/23 00:39:31;;;;;;;35.58;5.15;;;8.90;99.90;;;;;;5042449;28;20029;-86
2024/01/23 00:41:57;;;;;;;35.08;5.90;;;9.60;99.90;;;;;;5047440;28;20028;-87
2024/01/23 00:44:23;;;;;;;29.13;4.55;;;8.50;99.90;;;;;;5034938;28;20037;-89
2024/01/23 00:46:48;;;;;;;24.92;4.07;;;9.30;99.90;;;;;;5035164;28;20100;-89
2024/01/23 00:49:14;;;;;;;31.88;6.22;;;9.10;99.90;;;;;;5032051;28;20385;-87
2024/01/23 00:51:39;;;;;;;27.60;3.88;;;9.10;99.90;;;;;;5028618;28;20131;-87
2024/01/23 00:54:05;;;;;;;26.67;4.57;;;8.30;99.90;;;;;;5028660;28;20052;-87
2024/01/23 00:57:10;;;;;;;24.38;4.07;;;8.10;99.90;;;;;;5068471;27;20399;-88
2024/01/23 00:59:35;;;;;;;;;;;9.20;99.90;;;;;;5069207;28;20029;-87
2024/01/23 01:02:01;;;;;;;23.63;4.25;;;8.70;99.90;;;;;;5068362;28;19904;-88
2024/01/23 01:04:27;;;;;;;31.45;4.50;;;8.80;99.90;;;;;;5068790;28;20025;-87
2024/01/23 01:06:53;;;;;;;39.80;5.60;;;8.60;99.90;;;;;;5065496;28;20483;-88
2024/01/23 01:09:18;;;;;;;30.52;5.13;;;8.00;99.90;;;;;;5065619;28;20116;-87
2024/01/23 01:11:44;;;;;;;41.28;5.10;;;7.90;99.90;;;;;;5048027;28;20529;-88
2024/01/23 01:14:10;;;;;;;20.85;5.05;;;8.40;99.90;;;;;;5063710;28;20032;-88
2024/01/23 01:16:35;;;;;;;25.45;4.40;;;8.20;99.90;;;;;;5052089;28;20123;-87
2024/01/23 01:19:01;;;;;;;30.27;5.25;;;8.60;99.90;;;;;;5061928;28;20017;-87
2024/01/23 01:21:27;;;;;;;28.10;4.22;;;8.00;99.90;;;;;;5068302;28;20033;-87
2024/01/23 01:23:52;;;;;;;31.83;3.95;;;9.00;99.90;;;;;;5061978;28;20071;-87
2024/01/23 01:26:18;;;;;;;22.30;4.50;;;8.00;99.90;;;;;;5058974;28;20563;-87
2024/01/23 01:28:44;;;;;;;25.15;5.15;;;8.00;99.90;;;;;;5068601;28;20024;-87
2024/01/23 01:31:09;;;;;;;26.35;5.10;;;9.30;99.90;;;;;;5066250;28;20025;-87
2024/01/23 01:33:35;;;;;;;24.25;4.97;;;9.10;99.90;;;;;;5068893;28;20033;-89
2024/01/23 01:36:01;;;;;;;32.72;5.22;;;9.10;99.90;;;;;;5067468;28;20029;-89
2024/01/23 01:38:28;;;;;;;29.38;4.85;;;8.70;99.90;;;;;;5070280;28;20029;-89
2024/01/23 01:41:14;;;;;;;23.48;4.18;;;8.60;99.90;;;;;;5071292;28;20029;-89
2024/01/23 01:43:40;;;;;;;31.30;4.78;;;8.70;99.90;;;;;;5069509;28;20040;-89
2024/01/23 01:46:19;;;;;;;30.35;4.28;;;7.90;99.90;;;;;;5068009;28;20021;-88
2024/01/23 01:48:46;;;;;;;26.58;4.65;;;7.90;99.90;;;;;;5121133;22;20151;-89
2024/01/23 01:51:28;;;;;;;34.58;4.80;;;7.90;99.90;;;;;;5068897;28;20024;-88
2024/01/23 01:53:55;;;;;;;30.40;4.88;;;7.90;99.90;;;;;;5067421;28;20056;-88
2024/01/23 01:56:24;;;;;;;40.30;4.40;;;8.90;99.90;;;;;;5067564;28;20040;-88
2024/01/23 01:58:50;;;;;;;28.58;5.47;;;7.90;99.90;;;;;;5068408;28;20200;-88
2024/01/23 02:01:18;;;;;;;23.65;3.70;;;9.20;99.90;;;;;;5055555;28;20139;-87
2024/01/23 02:03:43;;;;;;;29.52;6.93;;;7.90;99.90;;;;;;5048513;28;20053;-88
2024/01/23 02:06:12;;;;;;;25.15;4.53;;;7.90;99.90;;;;;;5062899;28;20510;-88
2024/01/23 02:08:39;;;;;;;26.33;5.00;;;7.90;99.90;;;;;;5049927;28;20064;-88
2024/01/23 02:11:04;;;;;;;24.55;4.60;;;8.80;99.90;;;;;;5054426;28;20362;-87
2024/01/23 02:13:30;;;;;;;37.10;5.85;;;7.80;99.90;;;;;;5054207;28;20079;-87
2024/01/23 02:15:56;;;;;;;24.67;5.47;;;9.30;99.90;;;;;;5052697;28;20465;-87
2024/01/23 02:18:37;;;;;;;20.30;4.00;;;8.80;99.90;;;;;;5054716;28;20063;-86
2024/01/23 02:21:03;;;;;;;30.02;4.70;;;7.80;99.90;;;;;;5045165;28;20489;-88
2024/01/23 02:23:30;;;;;;;27.75;5.47;;;7.70;99.90;;;;;;5056312;28;20040;-87
2024/01/23 02:25:55;;;;;;;30.48;4.40;;;7.70;99.90;;;;;;5047954;28;20053;-88
2024/01/23 02:28:21;;;;;;;24.80;4.28;;;7.70;99.90;;;;;;5043493;28;20041;-87
2024/01/23 02:30:47;;;;;;;25.17;4.97;;;8.80;99.90;;;;;;5127465;22;20082;-89
2024/01/23 02:33:14;;;;;;;28.00;4.88;;;7.60;99.90;;;;;;5059771;28;20028;-88
2024/01/23 02:35:43;;;;;;;27.70;4.18;;;7.70;99.90;;;;;;5080064;28;20037;-89
2024/01/23 02:38:15;;;;;;;26.63;4.57;;;7.80;99.90;;;;;;5078837;28;20285;-88
2024/01/23 02:40:40;;;;;;;30.90;4.50;;;8.90;99.90;;;;;;5072638;28;20031;-88
2024/01/23 02:43:06;;;;;;;34.97;4.88;;;7.70;99.90;;;;;;5069447;28;20021;-88
2024/01/23 02:45:31;;;;;;;30.98;5.35;;;7.70;99.90;;;;;;5073570;28;20115;-88
2024/01/23 02:47:57;;;;;;;19.98;4.43;;;7.70;99.90;;;;;;5064695;28;20029;-88
2024/01/23 02:50:22;;;;;;;24.05;3.97;;;7.80;99.90;;;;;;5072072;28;20028;-88
2024/01/23 02:52:49;;;;;;;20.15;3.58;;;7.70;99.90;;;;;;5061118;28;20029;-89
2024/01/23 02:55:15;;;;;;;27.25;4.72;;;7.70;99.90;;;;;;5059365;28;20044;-89
2024/01/23 02:57:40;;;;;;;22.73;3.50;;;7.80;99.90;;;;;;5070014;28;20380;-90
2024/01/23 03:00:09;;;;;;;37.13;4.25;;;7.70;99.90;;;;;;5072864;28;20025;-89
2024/01/23 03:02:35;;;;;;;29.60;4.97;;;7.70;99.90;;;;;;5073393;28;20057;-89
2024/01/23 03:05:01;;;;;;;19.50;3.53;;;7.60;99.90;;;;;;5066786;28;20025;-88
2024/01/23 03:07:38;;;;;;;26.05;4.47;;;7.60;99.90;;;;;;5072124;28;20112;-88
2024/01/23 03:10:04;;;;;;;29.88;5.00;;;7.60;99.90;;;;;;5062733;28;20447;-88
2024/01/23 03:12:31;;;;;;;23.10;3.70;;;7.60;99.90;;;;;;5060938;28;20035;-87
2024/01/23 03:14:56;;;;;;;27.13;4.60;;;8.10;99.90;;;;;;5053157;28;20036;-87
2024/01/23 03:17:22;;;;;;;24.23;4.45;;;8.50;99.90;;;;;;5053097;28;20025;-87
2024/01/23 03:19:48;;;;;;;36.47;4.45;;;8.00;99.90;;;;;;5051772;28;20029;-87
2024/01/23 03:22:13;;;;;;;31.23;4.13;;;7.50;99.90;;;;;;5053665;28;20454;-88
2024/01/23 03:24:40;;;;;;;31.02;5.90;;;8.50;99.90;;;;;;5054139;28;20111;-87
2024/01/23 03:27:06;;;;;;;23.58;4.80;;;7.80;99.90;;;;;;5057716;28;20033;-87
2024/01/23 03:29:43;;;;;;;24.20;4.78;;;8.70;99.90;;;;;;5055696;28;20489;-87
2024/01/23 03:32:09;;;;;;;22.25;3.95;;;8.50;99.90;;;;;;5058868;28;20461;-87
2024/01/23 03:34:35;;;;;;;26.13;4.72;;;7.80;99.90;;;;;;5073161;28;20024;-87
2024/01/23 03:37:26;;;;;;;26.48;5.55;;;8.40;99.90;;;;;;5075326;28;20585;-87
2024/01/23 03:39:51;;;;;;;25.92;4.30;;;8.40;99.90;;;;;;5061125;28;20060;-89
2024/01/23 03:42:17;;;;;;;34.35;4.53;;;7.50;99.90;;;;;;5072319;28;20486;-88
2024/01/23 03:44:43;;;;;;;24.55;4.32;;;8.00;99.90;;;;;;5072063;28;20028;-88
2024/01/23 03:47:08;;;;;;;28.92;3.83;;;7.60;99.90;;;;;;5073806;28;20553;-88
2024/01/23 03:49:35;;;;;;;24.50;4.43;;;8.20;99.90;;;;;;5060654;28;20037;-88
2024/01/23 03:52:09;;;;;;;24.42;3.78;;;7.40;99.90;;;;;;5054145;28;20354;-88
2024/01/23 03:54:35;;;;;;;26.00;5.10;;;8.40;99.90;;;;;;5053243;28;20499;-88
2024/01/23 03:57:01;;;;;;;27.65;5.45;;;7.90;99.90;;;;;;5073348;28;20365;-88
2024/01/23 03:59:26;;;;;;;26.80;4.43;;;8.20;99.90;;;;;;5068016;28;20052;-88
2024/01/23 04:01:52;;;;;;;24.63;4.80;;;7.40;99.90;;;;;;5057196;28;20028;-88
2024/01/23 04:04:20;;;;;;;29.85;4.05;;;8.20;99.90;;;;;;5059301;28;20029;-88
2024/01/23 04:06:45;;;;;;;29.00;4.20;;;8.40;99.90;;;;;;5076224;28;20473;-88
2024/01/23 04:09:11;;;;;;;38.25;4.18;;;7.90;99.90;;;;;;5075048;28;20039;-88
2024/01/23 04:11:36;;;;;;;29.25;4.97;;;8.40;99.90;;;;;;5065013;28;20036;-87
2024/01/23 04:14:17;;;;;;;20.90;4.68;;;7.40;99.90;;;;;;5077179;28;20020;-88
2024/01/23 04:16:42;;;;;;;27.40;4.75;;;7.30;99.90;;;;;;5088192;28;20036;-88
2024/01/23 04:19:08;;;;;;;21.65;3.78;;;7.30;99.90;;;;;;5087245;28;20044;-88
2024/01/23 04:21:43;;;;;;;15.05;3.83;;;7.10;99.90;;;;;;5083771;28;20032;-88
2024/01/23 04:24:08;;;;;;;27.67;3.97;;;8.50;99.90;;;;;;5075926;28;20069;-88
2024/01/23 04:26:46;;;;;;;26.00;4.53;;;8.20;99.90;;;;;;5060878;28;20028;-87
2024/01/23 04:29:12;;;;;;;28.00;4.00;;;7.30;99.90;;;;;;5053807;28;20398;-88
2024/01/23 04:31:37;;;;;;;19.02;4.13;;;7.40;99.90;;;;;;5059939;28;20056;-87
2024/01/23 04:34:03;;;;;;;29.98;4.97;;;8.50;99.90;;;;;;5057542;28;20055;-88
2024/01/23 04:36:28;;;;;;;28.15;4.95;;;7.40;99.90;;;;;;5075253;28;20096;-88
2024/01/23 04:38:54;;;;;;;32.47;6.45;;;7.30;99.90;;;;;;5085483;28;20040;-88
2024/01/23 04:41:35;;;;;;;27.45;5.28;;;8.10;99.90;;;;;;5088128;28;20175;-88
2024/01/23 04:44:01;;;;;;;26.65;4.90;;;8.10;99.90;;;;;;5076813;28;20071;-88
2024/01/23 04:46:26;;;;;;;37.40;4.63;;;8.10;99.90;;;;;;5057739;28;20432;-88
2024/01/23 04:48:52;;;;;;;30.52;4.95;;;8.30;99.90;;;;;;5052559;28;20036;-88
2024/01/23 04:51:17;;;;;;;26.50;4.78;;;8.20;99.90;;;;;;5052790;28;20495;-87
2024/01/23 04:53:43;;;;;;;25.63;3.85;;;8.20;99.90;;;;;;5053402;28;20017;-88
2024/01/23 04:56:09;;;;;;;30.98;4.47;;;6.60;99.90;;;;;;5053680;28;20124;-88
2024/01/23 04:58:37;;;;;;;23.90;5.15;;;8.40;99.90;;;;;;5054924;28;20036;-87
2024/01/23 05:01:03;;;;;;;21.63;3.70;;;8.50;99.90;;;;;;5055210;28;20033;-87
2024/01/23 05:03:38;;;;;;;25.48;4.80;;;7.30;99.90;;;;;;5062228;28;20024;-88
2024/01/23 05:06:04;;;;;;;27.55;5.47;;;8.10;99.90;;;;;;5075365;28;20111;-88
2024/01/23 05:08:30;;;;;;;28.75;3.53;;;8.40;99.90;;;;;;5070204;28;20611;-88
2024/01/23 05:10:56;;;;;;;15.52;3.97;;;7.30;99.90;;;;;;5054184;28;20079;-87
2024/01/23 05:13:21;;;;;;;20.50;3.80;;;7.30;99.90;;;;;;5057772;28;20025;-88
2024/01/23 05:15:47;;;;;;;33.30;4.13;;;8.20;99.90;;;;;;5073998;28;20384;-88
2024/01/23 05:18:14;;;;;;;32.53;4.97;;;7.30;99.90;;;;;;5071381;28;20090;-87
2024/01/23 05:20:40;;;;;;;33.38;4.90;;;7.30;99.90;;;;;;5072648;28;20032;-87
2024/01/23 05:23:17;;;;;;;33.22;5.60;;;7.30;99.90;;;;;;5068601;28;20483;-88
2024/01/23 05:25:43;;;;;;;38.88;4.85;;;8.20;99.90;;;;;;5066824;28;20061;-88
2024/01/23 05:28:09;;;;;;;22.98;3.70;;;8.40;99.90;;;;;;5061980;28;20044;-88
2024/01/23 05:30:34;;;;;;;27.15;4.50;;;8.70;99.90;;;;;;5056612;28;20045;-88
2024/01/23 05:33:00;;;;;;;22.92;4.15;;;7.30;99.90;;;;;;5070816;28;20104;-88
2024/01/23 05:35:26;;;;;;;24.50;4.95;;;8.60;99.90;;;;;;5060145;28;20061;-88
2024/01/23 05:37:51;;;;;;;28.70;4.97;;;7.30;99.90;;;;;;5054219;28;20021;-87
2024/01/23 05:40:17;;;;;;;25.38;4.00;;;8.10;99.90;;;;;;5071688;28;20025;-88
2024/01/23 05:42:42;;;;;;;32.72;5.45;;;7.90;99.90;;;;;;5074522;28;20029;-88
2024/01/23 05:45:09;;;;;;;29.65;6.00;;;7.20;99.90;;;;;;5078872;28;20025;-88
2024/01/23 05:47:34;;;;;;;26.80;5.50;;;7.20;99.90;;;;;;5075857;28;20392;-88
2024/01/23 05:50:00;;;;;;;41.20;5.97;;;7.40;99.90;;;;;;5075516;28;20021;-87
2024/01/23 05:52:26;;;;;;;34.85;4.95;;;7.30;99.90;;;;;;5075802;28;20039;-87
2024/01/23 05:54:51;;;;;;;27.65;4.60;;;7.30;99.90;;;;;;5075837;28;20426;-89
2024/01/23 05:57:17;;;;;;;33.30;4.45;;;7.90;99.90;;;;;;5058565;28;20033;-86
2024/01/23 05:59:43;;;;;;;33.15;5.07;;;7.30;99.90;;;;;;5061184;28;20514;-87
2024/01/23 06:02:09;;;;;;;23.63;4.15;;;7.50;99.90;;;;;;5057852;28;20274;-87
2024/01/23 06:04:35;;;;;;;17.50;3.20;;;7.20;99.90;;;;;;5070065;28;20036;-86
2024/01/23 06:07:00;;;;;;;21.00;3.97;;;7.20;99.90;;;;;;5088506;28;20029;-87
2024/01/23 06:09:29;;;;;;;31.92;5.13;;;7.00;99.90;;;;;;5086798;28;20050;-87
2024/01/23 06:11:55;;;;;;;22.67;4.47;;;8.00;99.90;;;;;;5078038;28;20099;-87
2024/01/23 06:14:20;;;;;;;35.42;4.85;;;7.60;99.90;;;;;;5074652;28;20484;-87
2024/01/23 06:16:46;;;;;;;36.75;3.92;;;7.60;99.90;;;;;;5075792;28;20451;-87
2024/01/23 06:19:12;;;;;;;16.90;4.05;;;8.50;99.90;;;;;;5083952;28;20016;-87
2024/01/23 06:21:38;;;;;;;37.35;5.53;;;7.10;99.90;;;;;;5087094;28;20573;-86
2024/01/23 06:24:04;;;;;;;29.85;4.18;;;7.10;99.90;;;;;;5082560;28;20028;-87
2024/01/23 06:26:32;;;;;;;16.10;3.70;;;7.10;99.90;;;;;;5068690;28;20021;-87
2024/01/23 06:29:15;;;;;;;30.63;4.00;;;7.10;99.90;;;;;;5066305;28;20032;-87
2024/01/23 06:31:41;;;;;;;28.95;4.25;;;7.40;99.90;;;;;;5067124;28;20053;-86
2024/01/23 06:34:07;;;;;;;32.25;4.95;;;8.20;99.90;;;;;;5058033;28;20428;-86
2024/01/23 06:36:50;;;;;;;25.52;4.95;;;8.20;99.90;;;;;;5053686;28;20029;-87
2024/01/23 06:39:15;;;;;;;31.33;5.20;;;7.70;99.90;;;;;;5055670;28;20021;-88
2024/01/23 06:41:41;;;;;;;32.15;4.47;;;7.10;99.90;;;;;;5055337;28;20079;-88
2024/01/23 06:44:20;;;;;;;25.85;4.60;;;7.00;99.90;;;;;;5062833;28;20116;-87
2024/01/23 06:46:46;;;;;;;32.65;4.38;;;7.70;99.90;;;;;;5059585;28;20060;-88
2024/01/23 06:49:20;;;;;;;34.13;6.25;;;7.80;99.90;;;;;;5077708;28;20028;-88
2024/01/23 06:51:46;;;;;;;26.42;3.88;;;8.00;99.90;;;;;;5073086;28;20078;-88
2024/01/23 06:54:11;;;;;;;16.52;3.05;;;8.00;99.90;;;;;;5076226;28;20025;-88
2024/01/23 06:56:37;;;;;;;28.02;4.57;;;7.10;99.90;;;;;;5074139;28;20037;-86
2024/01/23 06:59:07;;;;;;;31.08;4.60;;;8.00;99.90;;;;;;5077727;28;20104;-87
2024/01/23 07:01:35;;;;;;;33.05;5.03;;;7.80;99.90;;;;;;5074795;28;20498;-86
2024/01/23 07:04:00;;;;;;;27.90;4.75;;;7.80;99.90;;;;;;5074933;28;20491;-88
2024/01/23 07:06:26;;;;;;;21.90;4.15;;;7.50;99.90;;;;;;5072107;28;20025;-89
2024/01/23 07:08:53;;;;;;;29.42;4.78;;;7.00;99.90;;;;;;5069190;28;20028;-90
2024/01/23 07:11:20;;;;;;;41.58;5.22;;;8.50;99.90;;;;;;5073988;28;20043;-90
2024/01/23 07:13:46;;;;;;;19.20;3.65;;;7.80;99.90;;;;;;5067067;28;20341;-90
2024/01/23 07:16:11;;;;;;;39.83;4.72;;;6.90;99.90;;;;;;5072917;28;20068;-89
2024/01/23 07:18:37;;;;;;;28.63;5.32;;;7.20;99.90;;;;;;5078006;28;20028;-90
2024/01/23 07:21:09;;;;;;;22.52;4.40;;;7.50;99.90;;;;;;5068343;28;20055;-90
2024/01/23 07:23:36;;;;;;;31.92;4.45;;;6.80;99.90;;;;;;5074624;28;20029;-90
2024/01/23 07:26:02;;;;;;;24.85;5.18;;;7.70;99.90;;;;;;5077269;28;20024;-90
2024/01/23 07:28:37;;;;;;;26.92;4.13;;;6.80;99.90;;;;;;5074315;28;20025;-89
2024/01/23 07:31:02;;;;;;;36.30;4.10;;;7.50;99.90;;;;;;5070426;28;20052;-90
2024/01/23 07:33:29;;;;;;;23.48;3.55;;;7.80;99.90;;;;;;5078363;28;20521;-89
2024/01/23 07:35:55;;;;;;;39.25;6.10;;;7.50;99.90;;;;;;5076901;28;20392;-90
2024/01/23 07:38:20;;;;;;;31.05;4.72;;;7.90;99.90;;;;;;5073975;28;20119;-90
2024/01/23 07:40:58;;;;;;;21.85;3.85;;;6.70;99.90;;;;;;5074569;28;20029;-89
2024/01/23 07:43:25;;;;;;;21.70;4.25;;;7.50;99.90;;;;;;5080974;28;20024;-89
2024/01/23 07:45:51;;;;;;;35.63;5.18;;;7.70;99.90;;;;;;5078565;28;20036;-87
2024/01/23 07:48:16;;;;;;;32.28;4.45;;;6.70;99.90;;;;;;5073630;28;20017;-89
2024/01/23 07:50:42;;;;;;;23.40;3.58;;;6.80;99.90;;;;;;5075830;28;20020;-88
2024/01/23 07:53:08;;;;;;;26.85;4.95;;;6.80;99.90;;;;;;5062752;28;20378;-87
2024/01/23 07:55:33;;;;;;;23.05;4.28;;;6.90;99.90;;;;;;5071296;28;20045;-89
2024/01/23 07:58:17;;;;;;;20.10;4.03;;;6.80;99.90;;;;;;5077235;28;20039;-88
2024/01/23 08:00:43;;;;;;;35.00;5.50;;;6.70;99.90;;;;;;5076055;28;20029;-86
2024/01/23 08:03:09;;;;;;;37.42;5.97;;;6.70;99.90;;;;;;5070400;28;20059;-88
2024/01/23 08:05:47;;;;;;;31.15;5.00;;;6.70;99.90;;;;;;5072287;28;20035;-89
2024/01/23 08:08:12;;;;;;;29.10;6.03;;;6.60;99.90;;;;;;5071364;28;20498;-89
2024/01/23 08:10:38;;;;;;;33.55;5.13;;;6.60;99.90;;;;;;5063440;28;20036;-90
2024/01/23 08:13:04;;;;;;;35.47;7.03;;;7.00;99.90;;;;;;5072528;28;20032;-88
2024/01/23 08:15:30;;;;;;;38.47;5.78;;;7.00;99.90;;;;;;5067966;28;20377;-86
2024/01/23 08:18:03;;;;;;;25.00;4.95;;;6.50;99.90;;;;;;5065242;28;20053;-87
2024/01/23 08:20:29;;;;;;;31.63;6.20;;;6.60;99.90;;;;;;5060990;28;20044;-89
2024/01/23 08:22:55;;;;;;;27.77;4.03;;;6.50;99.90;;;;;;5058131;28;20029;-87
2024/01/23 08:25:21;;;;;;;35.85;5.32;;;6.60;99.90;;;;;;5059166;28;20052;-87
2024/01/23 08:28:07;;;;;;;42.42;5.85;;;7.70;99.90;;;;;;5058034;28;20048;-87
2024/01/23 08:30:33;;;;;;;35.10;5.97;;;7.40;99.90;;;;;;5056613;28;20049;-88
2024/01/23 08:32:58;;;;;;;28.25;5.35;;;7.60;99.90;;;;;;5055279;28;20090;-88
2024/01/23 08:35:31;;;;;;;29.08;6.07;;;6.60;99.90;;;;;;5053336;28;20431;-87
2024/01/23 08:37:57;;;;;;;37.47;4.93;;;7.90;99.90;;;;;;5054351;28;20476;-88
2024/01/23 08:40:22;;;;;;;29.60;4.82;;;7.70;99.90;;;;;;5062285;28;20027;-86
2024/01/23 08:42:48;;;;;;;26.48;4.43;;;6.60;99.90;;;;;;5057692;28;20021;-88
2024/01/23 08:45:14;;;;;;;36.63;4.57;;;6.60;99.90;;;;;;5070037;28;20195;-85
2024/01/23 08:47:39;;;;;;;34.90;5.22;;;6.70;99.90;;;;;;5070274;28;20476;-87
2024/01/23 08:50:05;;;;;;;27.92;5.20;;;6.70;99.90;;;;;;5070240;28;20553;-86
2024/01/23 08:52:31;;;;;;;34.13;5.35;;;6.80;99.90;;;;;;5069776;28;20516;-86
2024/01/23 08:54:57;;;;;;;26.75;5.78;;;6.80;99.90;;;;;;5065914;28;20041;-87
2024/01/23 08:57:24;;;;;;;25.50;4.53;;;6.80;99.90;;;;;;5065595;28;20059;-86
2024/01/23 08:59:55;;;;;;;27.92;4.57;;;7.80;99.90;;;;;;5068916;28;20021;-89
2024/01/23 09:02:21;;;;;;;22.20;4.80;;;6.80;99.90;;;;;;5050292;28;20025;-88
2024/01/23 09:04:47;;;;;;;41.38;6.05;;;7.80;99.90;;;;;;5052013;28;20098;-90
2024/01/23 09:07:13;;;;;;;37.05;5.40;;;6.80;99.90;;;;;;5062498;28;20020;-89
2024/01/23 09:09:51;;;;;;;24.98;4.72;;;6.80;99.90;;;;;;5065749;28;20087;-87
2024/01/23 09:12:17;;;;;;;26.52;4.82;;;6.90;99.90;;;;;;5054817;28;20044;-88
2024/01/23 09:14:43;;;;;;;21.83;5.15;;;7.80;99.90;;;;;;5064271;28;20024;-88
2024/01/23 09:17:09;;;;;;;28.52;5.35;;;6.90;99.90;;;;;;5068380;28;20037;-90
2024/01/23 09:19:34;;;;;;;36.13;7.03;;;6.90;99.90;;;;;;5071425;28;20549;-88
2024/01/23 09:22:16;;;;;;;40.35;6.22;;;6.90;99.90;;;;;;5074149;28;20553;-88
2024/01/23 09:24:42;;;;;;;34.60;6.88;;;7.30;99.90;;;;;;5067796;28;20035;-88
2024/01/23 09:27:08;;;;;;;36.88;5.55;;;7.50;99.90;;;;;;5067145;28;20025;-88
2024/01/23 09:29:33;;;;;;;26.42;4.65;;;6.90;99.90;;;;;;5072014;28;20492;-90
2024/01/23 09:32:05;;;;;;;39.03;5.55;;;7.00;99.90;;;;;;5070018;28;20044;-89
2024/01/23 09:34:36;;;;;;;40.00;6.60;;;7.90;99.90;;;;;;5075103;28;20012;-89
2024/01/23 09:37:02;;;;;;;34.53;7.10;;;7.00;99.90;;;;;;5070751;28;20025;-88
2024/01/23 09:39:28;;;;;;;41.33;6.15;;;7.00;99.90;;;;;;5074700;28;20129;-87
2024/01/23 09:42:10;;;;;;;26.40;4.63;;;7.40;99.90;;;;;;5069997;28;20052;-86
2024/01/23 09:44:42;;;;;;;37.88;6.22;;;7.10;99.90;;;;;;5075333;28;20610;-88
2024/01/23 09:47:11;;;;;;;37.00;5.50;;;8.00;99.90;;;;;;5082192;28;20020;-87
2024/01/23 09:49:39;;;;;;;28.38;4.93;;;7.80;99.90;;;;;;5079542;28;20036;-87
2024/01/23 09:52:07;;;;;;;33.72;5.38;;;8.00;99.90;;;;;;5070641;28;20028;-87
2024/01/23 09:54:36;;;;;;;45.78;6.47;;;7.80;99.90;;;;;;5066514;28;20098;-89
2024/01/23 09:57:08;;;;;;;33.38;5.78;;;7.20;99.90;;;;;;5073922;28;20459;-88
2024/01/23 09:59:33;;;;;;;45.40;6.90;;;7.90;99.90;;;;;;5066233;28;20036;-88
2024/01/23 10:02:01;;;;;;;29.15;5.28;;;7.30;99.90;;;;;;5061353;28;20025;-89
2024/01/23 10:04:29;;;;;;;38.55;6.28;;;8.30;99.90;;;;;;5074683;28;20915;-85
2024/01/23 10:06:54;;;;;;;31.42;5.88;;;7.30;99.90;;;;;;5074949;28;20036;-88
2024/01/23 10:09:20;;;;;;;27.60;4.32;;;8.30;99.90;;;;;;5072989;28;20419;-89
2024/01/23 10:11:45;;;;;;;33.70;4.32;;;7.30;99.90;;;;;;5079361;28;20087;-90
2024/01/23 10:14:29;;;;;;;22.17;4.13;;;7.40;99.90;;;;;;5067234;28;20016;-87
2024/01/23 10:16:55;;;;;;;27.30;5.05;;;7.40;99.90;;;;;;5086877;28;20060;-89
2024/01/23 10:19:21;;;;;;;23.52;4.28;;;7.90;99.90;;;;;;5082044;28;20028;-92
2024/01/23 10:21:47;;;;;;;26.05;6.18;;;7.40;99.90;;;;;;5078391;28;20040;-88
2024/01/23 10:24:30;;;;;;;39.00;5.85;;;8.40;99.90;;;;;;5092650;28;20036;-89
2024/01/23 10:26:56;;;;;;;38.55;4.68;;;7.70;99.90;;;;;;5070305;28;20088;-89
2024/01/23 10:29:22;;;;;;;31.88;5.38;;;8.10;99.90;;;;;;5075848;28;20558;-88
2024/01/23 10:31:48;;;;;;;21.65;4.75;;;7.50;99.90;;;;;;5063811;28;20067;-87
2024/01/23 10:34:15;;;;;;;29.20;5.28;;;8.40;99.90;;;;;;5053038;28;20789;-88
2024/01/23 10:37:01;;;;;;;27.52;4.78;;;7.50;99.90;;;;;;5054855;28;20191;-88
2024/01/23 10:39:30;;;;;;;33.03;4.55;;;7.50;99.90;;;;;;5055189;28;20041;-89
2024/01/23 10:41:57;;;;;;;33.97;5.25;;;7.60;99.90;;;;;;5046538;28;20036;-89
2024/01/23 10:44:26;;;;;;;36.85;6.63;;;7.60;99.90;;;;;;5048878;28;20072;-86
2024/01/23 10:47:10;;;;;;;38.63;5.55;;;7.60;99.90;;;;;;5036069;28;20022;-90
2024/01/23 10:49:36;;;;;;;30.20;5.25;;;8.40;99.90;;;;;;5046480;28;20064;-88
2024/01/23 10:52:04;;;;;;;33.88;5.43;;;7.60;99.90;;;;;;5049601;28;20055;-85
2024/01/23 10:54:42;;;;;;;31.13;5.43;;;7.70;99.90;;;;;;5042197;28;20140;-88
2024/01/23 10:57:12;;;;;;;24.02;4.85;;;7.70;99.90;;;;;;5073357;28;20040;-90
2024/01/23 10:59:39;;;;;;;35.70;5.72;;;9.20;99.90;;;;;;5078232;28;20020;-87
2024/01/23 11:02:31;;;;;;;24.52;5.00;;;7.70;99.90;;;;;;5069443;28;20025;-89
2024/01/23 11:04:58;;;;;;;26.77;4.45;;;7.80;99.90;;;;;;5069005;28;20028;-86
2024/01/23 11:07:30;;;;;;;25.13;5.18;;;7.80;99.90;;;;;;5072922;28;20051;-91
2024/01/23 11:10:09;;;;;;;29.15;4.20;;;7.80;99.90;;;;;;5071903;28;20020;-87
2024/01/23 11:12:44;;;;;;;34.28;6.18;;;7.90;99.90;;;;;;5068058;28;20032;-88
2024/01/23 11:15:16;;;;;;;31.38;5.18;;;7.80;99.90;;;;;;5069116;28;20094;-88
2024/01/23 11:17:42;;;;;;;33.33;5.55;;;7.90;99.90;;;;;;5072069;28;20032;-89
2024/01/23 11:20:13;;;;;;;28.70;5.32;;;7.80;99.90;;;;;;5072374;28;20031;-89
2024/01/23 11:22:38;;;;;;;31.80;5.75;;;7.90;99.90;;;;;;5073526;28;20025;-88
2024/01/23 11:25:05;;;;;;;32.65;5.22;;;7.90;99.90;;;;;;5071185;28;20043;-88
2024/01/23 11:27:33;;;;;;;32.35;5.00;;;7.90;99.90;;;;;;5070053;28;20120;-89
2024/01/23 11:29:59;;;;;;;38.38;5.22;;;7.90;99.90;;;;;;5061140;28;20473;-89
2024/01/23 11:35:14;;;;;;;33.13;5.63;;;8.00;99.90;;;;;;5075634;28;20039;-89
2024/01/23 11:37:50;;;;;;;28.23;5.32;;;8.20;99.90;;;;;;5070423;28;20024;-90
2024/01/23 11:40:38;;;;;;;28.42;4.80;;;7.90;99.90;;;;;;5058125;28;20068;-89
2024/01/23 11:43:07;;;;;;;29.15;5.05;;;8.00;99.90;;;;;;5058111;28;20039;-90
2024/01/23 11:45:54;;;;;;;30.38;5.30;;;8.00;99.90;;;;;;5063722;28;20036;-90
2024/01/23 11:48:20;;;;;;;18.05;4.75;;;8.40;99.90;;;;;;5064196;28;20546;-88
2024/01/23 11:50:46;;;;;;;25.23;5.45;;;7.80;99.90;;;;;;5061083;28;20028;-87
2024/01/23 11:53:13;;;;;;;29.58;5.10;;;8.00;99.90;;;;;;5062653;28;20029;-86
2024/01/23 11:55:39;;;;;;;35.70;5.70;;;8.00;99.90;;;;;;5066212;28;20530;-90
2024/01/23 11:58:05;;;;;;;31.85;4.80;;;8.00;99.90;;;;;;5066247;28;20025;-89
2024/01/23 12:00:30;;;;;;;27.58;5.57;;;8.00;99.90;;;;;;5056037;28;20024;-89
2024/01/23 12:02:56;;;;;;;30.85;5.45;;;8.50;99.90;;;;;;5061964;28;20021;-89
2024/01/23 12:05:22;;;;;;;38.75;5.80;;;8.00;99.90;;;;;;5070864;28;20504;-88
2024/01/23 12:07:48;;;;;;;41.17;5.78;;;8.00;99.90;;;;;;5061101;28;20032;-88
2024/01/23 12:10:16;;;;;;;25.02;5.53;;;9.10;99.90;;;;;;5068534;28;20111;-89
2024/01/23 12:12:42;;;;;;;35.40;5.85;;;8.10;99.90;;;;;;5068580;28;20364;-89
2024/01/23 12:15:08;;;;;;;33.25;5.97;;;8.20;99.90;;;;;;5070209;28;20036;-89
2024/01/23 12:17:35;;;;;;;35.60;5.05;;;8.20;99.90;;;;;;5075095;28;20031;-89
2024/01/23 12:20:09;;;;;;;42.13;5.22;;;8.30;99.90;;;;;;5071747;28;20368;-89
2024/01/23 12:22:39;;;;;;;25.77;4.78;;;8.20;99.90;;;;;;5073450;28;20033;-88
2024/01/23 12:25:09;;;;;;;51.13;7.80;;;8.30;99.90;;;;;;5070049;28;20878;-89
2024/01/23 12:27:35;;;;;;;35.75;6.00;;;8.30;99.90;;;;;;5071006;28;20024;-89
2024/01/23 12:30:02;;;;;;;31.30;5.05;;;8.30;99.90;;;;;;5072893;28;20032;-89
2024/01/23 12:32:28;;;;;;;30.15;5.53;;;8.30;99.90;;;;;;5066018;28;20105;-89
2024/01/23 12:34:55;;;;;;;30.83;5.22;;;9.00;99.90;;;;;;5063720;28;20469;-89
2024/01/23 12:37:31;;;;;;;38.47;6.60;;;8.40;99.90;;;;;;5061822;28;20060;-89
2024/01/23 12:40:04;;;;;;;30.05;5.85;;;8.40;99.90;;;;;;5069546;28;20074;-89
2024/01/23 12:42:30;;;;;;;26.80;5.63;;;9.10;99.90;;;;;;5052866;28;20044;-88
2024/01/23 12:44:57;;;;;;;37.47;6.18;;;8.40;99.90;;;;;;5058948;28;20078;-87
2024/01/23 12:47:22;;;;;;;44.95;6.65;;;8.40;99.90;;;;;;5072336;28;20464;-89
2024/01/23 12:49:48;;;;;;;38.05;6.82;;;8.40;99.90;;;;;;5071895;28;20099;-88
2024/01/23 12:52:18;;;;;;;40.90;5.80;;;8.40;99.90;;;;;;5073126;28;20492;-89
2024/01/23 12:54:44;;;;;;;30.40;6.47;;;8.50;99.90;;;;;;5061265;28;20473;-89